• Join FlightAware (Why Join?)
  • Login
  • US Flag 
 
05:20AM EST


 

Airport Tracker/Info


-or-


 

Live Flight TrackerFlight Track Log ✈ N724AE ✈ 08-Apr-2013 ✈ KDFW - KVPS

Flight Track Log - Related Links

Times and Time Zones

All times are in EDT time to prevent confusion due to time zone crossing. See the N724AE flight status page for this flight to view local times or setup timezone preferences in your user account.

Time Position Orientation Groundspeed Altitude Reporting Facility
EDT Latitude Longitude Course Direction KTS MPH feet Rate Location/Type
04:07PM 32.8500 -97.0333 84° East 165 190 2,600  Level Dallas / Fort Worth TRACON
04:08PM 32.8000 -97.0333 180° South 174 200 5,500 2,100 Climbing Dallas / Fort Worth TRACON
04:09PM 32.6833 -96.8354 90° East  Level FlightAware Approximate
04:09PM 32.7500 -97.0333 180° South 221 254 6,800  Level Dallas / Fort Worth TRACON
04:10PM 32.6984 -96.7033 77° East  Level FlightAware Approximate
04:10PM 32.7000 -96.9833 140° Southeast 277 319 8,600  Level Dallas / Fort Worth TRACON
04:11PM 32.7229 -96.5724 77° East  Level FlightAware Approximate
04:12PM 32.7397 -96.4401 84° East  Level FlightAware Approximate
04:12PM 32.6961 -96.7986 91° East 310 357 10,100  Level Fort Worth Center
04:13PM 32.7144 -96.6753 80° East 354 407 11,700 1,560 Climbing Fort Worth Center
04:14PM 32.7303 -96.5664 80° East 373 429 13,300 1,860 Climbing Fort Worth Center
04:15PM 32.7461 -96.4353 82° East 368 423 15,500 1,800 Climbing Fort Worth Center
04:16PM 32.7597 -96.3289 81° East 368 423 17,000 1,500 Climbing Fort Worth Center
04:17PM 32.7397 -96.1958 100° East 367 422 18,600 1,380 Climbing Fort Worth Center
04:18PM 32.7219 -96.0825 101° East 372 428 19,800 1,560 Climbing Fort Worth Center
04:19PM 32.6994 -95.9444 101° East 388 447 21,800 1,860 Climbing Fort Worth Center
04:20PM 32.6814 -95.8139 99° East 395 455 23,600 1,800 Climbing Fort Worth Center
04:21PM 32.6608 -95.6886 101° East 388 447 25,400 1,800 Climbing Fort Worth Center
04:22PM 32.6631 -95.5578 89° East 388 447 27,300 1,800 Climbing Fort Worth Center
04:23PM 32.6739 -95.4317 84° East 388 447 29,100 1,620 Climbing Fort Worth Center
04:24PM 32.6822 -95.3056 85° East 388 447 30,600 1,200 Climbing Fort Worth Center
04:25PM 32.6822 -95.1919 90° East 383 441 31,600 1,020 Climbing Fort Worth Center
04:26PM 32.6528 -95.0669 106° East 389 448 32,700 1,080 Climbing Fort Worth Center
04:27PM 32.6192 -94.9394 107° East 394 453 33,800 1,080 Climbing Fort Worth Center
04:28PM 32.5853 -94.8122 108° East 394 453 34,900 960 Climbing Fort Worth Center
04:29PM 32.5511 -94.6803 107° East 399 459 35,800 900 Climbing Fort Worth Center
04:30PM 32.5169 -94.5506 107° East 407 468 36,700 600 Climbing Fort Worth Center
04:31PM 32.4825 -94.4164 107° East 412 474 37,000 120 Climbing Fort Worth Center
04:32PM 32.4456 -94.2747 107° East 429 494 37,000  Level Fort Worth Center
04:33PM 32.4064 -94.1308 108° East 442 509 37,000  Level Fort Worth Center
04:34PM 32.3692 -93.9822 106° East 458 527 37,000  Level Fort Worth Center
04:35PM 32.3294 -93.8339 108° East 464 534 37,000  Level Fort Worth Center
04:37PM 32.2483 -93.5319 108° East 481 554 37,000  Level Houston Center
04:38PM 32.2067 -93.3800 108° East 485 558 37,000  Level Houston Center
04:39PM 32.1564 -93.1978 108° East 486 559 37,000  Level Houston Center
04:40PM 32.1153 -93.0469 108° East 484 557 37,000  Level Houston Center
04:41PM 32.0725 -92.8956 108° East 480 552 37,000  Level Houston Center
04:42PM 32.0314 -92.7472 108° East 478 550 37,000  Level Houston Center
04:43PM 31.9894 -92.5989 108° East 477 549 37,000  Level Houston Center
04:44PM 31.9481 -92.4514 108° East 476 548 37,000  Level Houston Center
04:45PM 31.9056 -92.3042 109° East 476 548 37,000  Level Houston Center
04:46PM 31.8569 -92.1297 108° East 471 542 37,000  Level Houston Center
04:47PM 31.8164 -91.9869 108° East 468 539 37,000  Level Houston Center
04:48PM 31.7750 -91.8422 109° East 466 536 37,000  Level Houston Center
04:49PM 31.7328 -91.6964 109° East 467 537 37,000  Level Houston Center
04:50PM 31.6908 -91.5508 109° East 469 540 37,000  Level Houston Center
04:51PM 31.6483 -91.4056 109° East 470 541 37,000  Level Houston Center
04:52PM 31.5961 -91.2308 109° East 472 543 37,000  Level Houston Center
04:53PM 31.5542 -91.0872 109° East 471 542 37,000  Level Houston Center
04:54PM 31.5103 -90.9417 109° East 472 543 37,000  Level Houston Center
04:56PM 31.4664 -90.7975 110° East 470 541 37,000  Level Houston Center
04:57PM 31.4228 -90.6528 109° East 471 542 37,000 -120 Level Houston Center
04:58PM 31.3808 -90.5061 108° East 473 544 36,800 -660 Descending Houston Center
04:59PM 31.3267 -90.3319 110° East 475 547 35,700 -900 Descending Houston Center
05:00PM 31.2878 -90.1847 107° East 473 544 35,000 -480 Descending Houston Center
05:01PM 31.2583 -90.0333 103° East 475 547 34,800 -600 Descending Houston Center
05:02PM 31.2278 -89.8822 103° East 476 548 33,800 -960 Descending Houston Center
05:03PM 31.1958 -89.7300 104° East 480 552 32,800 -1,020 Descending Houston Center
05:04PM 31.1642 -89.5775 104° East 481 554 31,800 -900 Descending Houston Center
05:05PM 31.1333 -89.4261 103° East 480 552 31,000 -420 Descending Houston Center
05:06PM 31.0953 -89.2453 104° East 476 548 31,000  Level Houston Center
05:07PM 31.0619 -89.0953 105° East 476 548 31,000  Level Houston Center
05:08PM 31.0300 -88.9439 104° East 481 554 31,000 -360 Level Houston Center
05:09PM 30.9950 -88.7864 104° East 481 554 30,300 -780 Descending Houston Center
05:10PM 30.9619 -88.6350 104° East 486 559 29,400 -960 Descending Houston Center
05:11PM 30.9300 -88.4892 104° East 484 557 28,400 -1,020 Descending Houston Center
05:12PM 30.8908 -88.3056 104° East 488 562 27,300 -1,080 Descending Houston Center
05:13PM 30.8561 -88.1503 105° East 496 571 26,200 -1,020 Descending Houston Center
05:14PM 30.8219 -87.9961 104° East 493 567 25,200 -1,020 Descending Houston Center
05:15PM 30.7886 -87.8439 104° East 489 563 24,100 -780 Descending Houston Center
05:16PM 30.7664 -87.7564 106° East 484 557 24,000 -120 Descending Jacksonville Center
05:17PM 30.7703 -87.6019 88° East 467 537 24,000 -60 Level Jacksonville Center
05:18PM 30.7819 -87.4478 85° East 467 537 23,900 -1,440 Descending Jacksonville Center
05:19PM 30.7914 -87.3008 86° East 467 537 21,200 -2,820 Descending Jacksonville Center
05:20PM 30.8025 -87.1586 85° East 454 522 18,300 -2,760 Descending Jacksonville Center
05:21PM 30.8092 -87.0236 87° East 429 494 15,700 -2,580 Descending Jacksonville Center
05:22PM 30.8172 -86.8981 86° East 406 467 13,200 -2,340 Descending Jacksonville Center
05:23PM 30.8250 -86.7847 85° East 372 428 11,100 -1,740 Descending Jacksonville Center
05:24PM 30.8281 -86.6833 88° East 336 387 9,800 -1,500 Descending Jacksonville Center
05:25PM 30.8244 -86.5914 93° East 308 354 8,200 -1,620 Descending Jacksonville Center
05:26PM 30.7892 -86.5125 117° Southeast 267 307 6,600 -1,500 Descending Jacksonville Center
05:27PM 30.7297 -86.4764 152° Southeast 231 266 5,200 -1,620 Descending Jacksonville Center
05:28PM 30.6650 -86.4739 178° South 224 258 3,400 -1,800 Descending Jacksonville Center